createdAt,value
2018-09-05T00:00:01.702Z,20.89
2018-09-05T00:01:16.456Z,20.80
2018-09-05T00:02:10.525Z,20.76
2018-09-05T00:03:23.546Z,20.89
2018-09-05T00:05:36.049Z,20.79
2018-09-05T00:07:37.912Z,20.80
2018-09-05T00:08:46.320Z,20.64
2018-09-05T00:09:52.779Z,20.69
2018-09-05T00:11:56.789Z,20.66
2018-09-05T00:13:06.017Z,20.66
2018-09-05T00:14:25.995Z,20.64
2018-09-05T00:15:22.324Z,20.66
2018-09-05T00:16:23.663Z,20.68
2018-09-05T00:17:25.201Z,20.62
2018-09-05T00:19:40.068Z,20.65
2018-09-05T00:20:54.516Z,20.65
2018-09-05T00:22:57.503Z,20.66
2018-09-05T00:25:05.007Z,20.62
2018-09-05T00:26:11.250Z,20.58
2018-09-05T00:27:25.288Z,20.50
2018-09-05T00:29:26.225Z,20.61
2018-09-05T00:30:38.115Z,20.58
2018-09-05T00:31:48.568Z,20.59
2018-09-05T00:32:40.794Z,20.54
2018-09-05T00:33:53.909Z,20.49
2018-09-05T00:34:52.899Z,20.47
2018-09-05T00:36:06.319Z,20.43
2018-09-05T00:37:09.913Z,20.47
2018-09-05T00:38:12.792Z,20.47
2018-09-05T00:39:22.837Z,20.43
2018-09-05T00:41:33.400Z,20.42
2018-09-05T00:42:38.631Z,20.43
2018-09-05T00:44:49.505Z,20.43
2018-09-05T00:45:51.665Z,20.42
2018-09-05T00:47:03.863Z,20.41
2018-09-05T00:49:17.091Z,20.41
2018-09-05T00:50:24.268Z,20.34
2018-09-05T00:51:30.627Z,20.34
2018-09-05T00:52:27.153Z,20.31
2018-09-05T00:53:34.227Z,20.38
2018-09-05T00:54:40.330Z,20.34
2018-09-05T00:55:55.544Z,20.33
2018-09-05T00:59:00.798Z,20.33
2018-09-05T01:00:06.641Z,20.33
2018-09-05T01:01:13.103Z,20.38
2018-09-05T01:02:17.718Z,20.33
2018-09-05T01:03:25.312Z,20.28
2018-09-05T01:05:41.708Z,20.31
2018-09-05T01:06:33.422Z,20.28
2018-09-05T01:07:41.623Z,20.20
2018-09-05T01:08:53.921Z,20.23
2018-09-05T01:09:53.007Z,20.28
2018-09-05T01:11:07.046Z,20.30
2018-09-05T01:12:07.160Z,20.21
2018-09-05T01:13:17.612Z,20.33
2018-09-05T01:15:20.905Z,20.30
2018-09-05T01:16:20.609Z,20.24
2018-09-05T01:17:32.087Z,20.25
2018-09-05T01:18:49.507Z,20.21
2018-09-05T01:19:41.939Z,20.13
2018-09-05T01:21:01.095Z,20.23
2018-09-05T01:23:08.895Z,20.15
2018-09-05T01:24:02.154Z,20.24
2018-09-05T01:26:16.606Z,20.27
2018-09-05T01:27:34.736Z,20.23
2018-09-05T01:28:33.621Z,20.28
2018-09-05T01:29:35.369Z,20.28
2018-09-05T01:30:43.265Z,20.25
2018-09-05T01:32:51.677Z,20.24
2018-09-05T01:33:59.366Z,20.27
2018-09-05T01:35:01.835Z,20.27
2018-09-05T01:36:09.829Z,20.21
2018-09-05T01:37:14.959Z,20.23
2018-09-05T01:38:28.899Z,20.21
2018-09-05T01:39:23.989Z,20.21
2018-09-05T01:42:48.182Z,20.23
2018-09-05T01:44:02.323Z,20.20
2018-09-05T01:45:57.218Z,20.20
2018-09-05T01:47:13.818Z,20.10
2018-09-05T01:48:16.387Z,20.13
2018-09-05T01:49:10.370Z,20.06
2018-09-05T01:50:14.562Z,20.00
2018-09-05T01:51:38.223Z,19.97
2018-09-05T01:54:48.386Z,19.94
2018-09-05T01:55:57.478Z,20.00
2018-09-05T01:56:55.779Z,20.00
2018-09-05T01:58:03.362Z,19.98
2018-09-05T02:00:16.798Z,19.97
2018-09-05T02:01:17.217Z,20.03
2018-09-05T02:03:17.642Z,20.03
2018-09-05T02:04:28.302Z,19.91
2018-09-05T02:06:50.543Z,19.91
2018-09-05T02:08:00.995Z,19.91
2018-09-05T02:09:03.053Z,19.94
2018-09-05T02:11:09.832Z,19.90
2018-09-05T02:12:26.123Z,19.86
2018-09-05T02:13:19.988Z,19.94
2018-09-05T02:14:26.960Z,19.95
2018-09-05T02:15:26.866Z,19.95
2018-09-05T02:16:35.272Z,19.88
2018-09-05T02:17:39.995Z,20.02
2018-09-05T02:18:54.953Z,19.87
2018-09-05T02:19:50.973Z,19.95
2018-09-05T02:21:00.605Z,19.90
2018-09-05T02:21:49.962Z,19.84
2018-09-05T02:23:12.091Z,19.80
2018-09-05T02:24:24.592Z,19.80
2018-09-05T02:25:41.497Z,19.84
2018-09-05T02:26:28.602Z,19.88
2018-09-05T02:27:33.526Z,19.83
2018-09-05T02:28:39.987Z,19.87
2018-09-05T02:29:45.527Z,19.90
2018-09-05T02:30:53.623Z,19.91
2018-09-05T02:31:55.168Z,19.91
2018-09-05T02:32:51.182Z,19.80
2018-09-05T02:33:54.367Z,19.88
2018-09-05T02:35:21.925Z,19.90
2018-09-05T02:38:27.280Z,19.86
2018-09-05T02:39:30.150Z,19.84
2018-09-05T02:40:51.837Z,19.87
2018-09-05T02:41:53.824Z,19.84
2018-09-05T02:42:52.088Z,19.80
2018-09-05T02:43:57.218Z,19.87
2018-09-05T02:44:59.991Z,19.84
2018-09-05T02:46:02.054Z,19.84
2018-09-05T02:47:08.921Z,19.86
2018-09-05T02:48:19.785Z,19.86
2018-09-05T02:49:29.933Z,19.83
2018-09-05T02:50:22.267Z,19.91
2018-09-05T02:51:22.177Z,19.94
2018-09-05T02:52:38.460Z,19.78
2018-09-05T02:54:08.471Z,19.78
2018-09-05T02:54:55.271Z,19.78
2018-09-05T02:56:01.524Z,19.84
2018-09-05T02:57:19.965Z,19.80
2018-09-05T02:58:04.212Z,19.80
2018-09-05T02:59:36.573Z,19.79
2018-09-05T03:00:22.655Z,19.90
2018-09-05T03:01:17.545Z,19.84
2018-09-05T03:02:21.762Z,19.88
2018-09-05T03:03:30.772Z,19.88
2018-09-05T03:04:38.463Z,19.83
2018-09-05T03:07:01.828Z,19.80
2018-09-05T03:08:55.601Z,19.78
2018-09-05T03:10:03.288Z,19.83
2018-09-05T03:11:20.300Z,19.84
2018-09-05T03:12:12.522Z,19.78
2018-09-05T03:13:20.724Z,19.90
2018-09-05T03:14:34.555Z,19.75
2018-09-05T03:16:47.242Z,19.83
2018-09-05T03:17:43.188Z,19.84
2018-09-05T03:19:04.107Z,19.84
2018-09-05T03:20:15.666Z,19.83
2018-09-05T03:21:05.129Z,19.79
2018-09-05T03:22:18.656Z,19.80
2018-09-05T03:23:14.974Z,19.78
2018-09-05T03:24:33.107Z,19.78
2018-09-05T03:25:36.292Z,19.80
2018-09-05T03:26:37.630Z,19.80
2018-09-05T03:28:52.704Z,19.79
2018-09-05T03:29:39.826Z,19.83
2018-09-05T03:30:48.319Z,19.91
2018-09-05T03:33:12.359Z,19.83
2018-09-05T03:34:14.662Z,19.91
2018-09-05T03:35:16.310Z,19.83
2018-09-05T03:36:17.650Z,19.76
2018-09-05T03:37:27.387Z,19.86
2018-09-05T03:38:44.297Z,19.87
2018-09-05T03:39:50.959Z,19.80
2018-09-05T03:40:45.749Z,19.78
2018-09-05T03:41:54.360Z,19.90
2018-09-05T03:42:41.971Z,19.78
2018-09-05T03:45:04.113Z,19.76
2018-09-05T03:46:18.273Z,19.79
2018-09-05T03:47:14.778Z,19.80
2018-09-05T03:48:21.751Z,19.78
2018-09-05T03:49:26.572Z,19.79
2018-09-05T03:50:40.098Z,19.80
2018-09-05T03:52:04.069Z,19.75
2018-09-05T03:52:42.284Z,19.75
2018-09-05T03:53:52.210Z,19.80
2018-09-05T03:54:53.448Z,19.72
2018-09-05T03:56:36.060Z,19.73
2018-09-05T03:57:16.308Z,19.75
2018-09-05T03:58:30.547Z,19.69
2018-09-05T03:59:20.522Z,19.69
2018-09-05T04:00:28.416Z,19.70
2018-09-05T04:01:47.169Z,19.66
2018-09-05T04:02:37.650Z,19.69
2018-09-05T04:04:06.128Z,19.61
2018-09-05T04:06:24.691Z,19.60
2018-09-05T04:06:54.686Z,19.65
2018-09-05T04:08:20.604Z,19.60
2018-09-05T04:09:15.298Z,19.48
2018-09-05T04:11:38.861Z,19.48
2018-09-05T04:12:51.142Z,19.47
2018-09-05T04:14:45.674Z,19.36
2018-09-05T04:15:56.204Z,19.39
2018-09-05T04:16:47.098Z,19.38
2018-09-05T04:17:46.081Z,19.35
2018-09-05T04:18:57.561Z,19.36
2018-09-05T04:21:19.183Z,19.35
2018-09-05T04:22:16.748Z,19.33
2018-09-05T04:24:21.667Z,19.29
2018-09-05T04:25:41.745Z,19.38
2018-09-05T04:26:31.309Z,19.29
2018-09-05T04:27:52.416Z,19.28
2018-09-05T04:28:54.169Z,19.28
2018-09-05T04:30:14.145Z,19.38
2018-09-05T04:32:09.454Z,19.36
2018-09-05T04:33:14.171Z,19.35
2018-09-05T04:34:11.207Z,19.28
2018-09-05T04:36:28.329Z,19.33
2018-09-05T04:37:29.056Z,19.25
2018-09-05T04:38:26.712Z,19.29
2018-09-05T04:39:44.536Z,19.31
2018-09-05T04:40:43.214Z,19.28
2018-09-05T04:41:49.263Z,19.25
2018-09-05T04:42:57.564Z,19.29
2018-09-05T04:44:03.308Z,19.24
2018-09-05T04:45:01.996Z,19.24
2018-09-05T04:46:30.263Z,19.18
2018-09-05T04:47:22.790Z,19.15
2018-09-05T04:48:19.727Z,19.18
2018-09-05T04:49:36.734Z,19.24
2018-09-05T04:50:28.041Z,19.25
2018-09-05T04:51:49.555Z,19.17
2018-09-05T04:52:42.204Z,19.13
2018-09-05T04:53:57.457Z,19.15
2018-09-05T04:57:04.651Z,19.14
2018-09-05T04:58:18.496Z,19.10
2018-09-05T04:59:15.316Z,19.13
2018-09-05T05:00:23.421Z,19.15
2018-09-05T05:02:30.910Z,19.08
2018-09-05T05:03:43.721Z,19.13
2018-09-05T05:04:49.669Z,19.14
2018-09-05T05:05:58.689Z,19.08
2018-09-05T05:06:56.448Z,19.15
2018-09-05T05:08:02.189Z,19.10
2018-09-05T05:09:05.169Z,19.14
2018-09-05T05:12:18.714Z,19.05
2018-09-05T05:13:30.296Z,19.06
2018-09-05T05:16:42.202Z,19.02
2018-09-05T05:17:56.955Z,18.99
2018-09-05T05:18:53.789Z,19.06
2018-09-05T05:20:11.310Z,19.06
2018-09-05T05:21:12.240Z,19.02
2018-09-05T05:22:17.060Z,18.97
2018-09-05T05:23:10.002Z,18.91
2018-09-05T05:24:25.068Z,18.95
2018-09-05T05:25:31.424Z,18.95
2018-09-05T05:27:40.453Z,18.99
2018-09-05T05:28:44.150Z,18.95
2018-09-05T05:29:43.542Z,18.94
2018-09-05T05:30:58.479Z,18.98
2018-09-05T05:32:10.492Z,18.97
2018-09-05T05:33:01.696Z,18.92
2018-09-05T05:34:07.848Z,18.99
2018-09-05T05:35:14.410Z,18.97
2018-09-05T05:38:37.580Z,19.08
2018-09-05T05:39:42.608Z,19.11
2018-09-05T05:40:51.834Z,19.10
2018-09-05T05:42:56.358Z,19.02
2018-09-05T05:44:01.639Z,19.05
2018-09-05T05:45:07.278Z,19.15
2018-09-05T05:46:12.711Z,19.15
2018-09-05T05:48:25.794Z,19.23
2018-09-05T05:49:31.433Z,19.24
2018-09-05T05:50:34.045Z,19.29
2018-09-05T05:52:57.371Z,19.23
2018-09-05T05:54:04.557Z,19.29
2018-09-05T05:56:10.549Z,19.25
2018-09-05T05:58:12.362Z,19.36
2018-09-05T05:59:21.078Z,19.39
2018-09-05T06:00:31.738Z,19.40
2018-09-05T06:02:44.972Z,19.46
2018-09-05T06:03:57.780Z,19.38
2018-09-05T06:04:50.925Z,19.46
2018-09-05T06:05:57.185Z,19.47
2018-09-05T06:07:05.072Z,19.50
2018-09-05T06:09:16.051Z,19.48
2018-09-05T06:11:41.362Z,19.61
2018-09-05T06:12:29.797Z,19.57
2018-09-05T06:13:58.479Z,19.66
2018-09-05T06:14:47.021Z,19.72
2018-09-05T06:15:44.573Z,19.66
2018-09-05T06:18:59.045Z,19.75
2018-09-05T06:20:07.036Z,19.75
2018-09-05T06:21:08.395Z,19.78
2018-09-05T06:22:34.603Z,19.76
2018-09-05T06:23:47.207Z,19.83
2018-09-05T06:24:34.934Z,19.73
2018-09-05T06:25:30.530Z,19.79
2018-09-05T06:27:20.208Z,19.84
2018-09-05T06:27:55.709Z,19.84
2018-09-05T06:29:04.866Z,19.87
2018-09-05T06:29:55.357Z,19.91
2018-09-05T06:31:05.484Z,19.94
2018-09-05T06:32:19.431Z,19.94
2018-09-05T06:33:46.168Z,19.91
2018-09-05T06:36:41.795Z,19.98
2018-09-05T06:37:46.828Z,20.00
2018-09-05T06:38:59.445Z,20.12
2018-09-05T06:40:08.140Z,20.10
2018-09-05T06:41:02.209Z,20.09
2018-09-05T06:42:04.060Z,20.05
2018-09-05T06:43:12.057Z,20.06
2018-09-05T06:44:16.060Z,20.20
2018-09-05T06:45:13.538Z,20.08
2018-09-05T06:46:39.120Z,20.08
2018-09-05T06:47:35.032Z,20.21
2018-09-05T06:48:38.217Z,20.13
2018-09-05T06:50:45.308Z,20.21
2018-09-05T06:51:52.994Z,20.25
2018-09-05T06:52:50.444Z,20.30
2018-09-05T06:54:07.655Z,20.42
2018-09-05T06:55:20.061Z,20.43
2018-09-05T06:56:06.957Z,20.43
2018-09-05T06:57:21.712Z,20.47
2018-09-05T06:58:21.390Z,20.47
2018-09-05T06:59:32.787Z,20.49
2018-09-05T07:00:36.173Z,20.53
2018-09-05T07:01:48.371Z,20.50
2018-09-05T07:02:52.587Z,20.53
2018-09-05T07:05:02.425Z,20.66
2018-09-05T07:06:01.818Z,20.65
2018-09-05T07:07:13.502Z,20.69
2018-09-05T07:10:24.896Z,20.79
2018-09-05T07:11:25.828Z,20.72
2018-09-05T07:12:37.101Z,20.89
2018-09-05T07:13:39.874Z,20.90
2018-09-05T07:15:46.957Z,20.90
2018-09-05T07:16:57.002Z,20.98
2018-09-05T07:17:58.237Z,21.01
2018-09-05T07:19:05.209Z,21.05
2018-09-05T07:20:08.906Z,21.06
2018-09-05T07:21:12.267Z,21.13
2018-09-05T07:22:21.210Z,21.17
2018-09-05T07:23:27.160Z,21.26
2018-09-05T07:24:29.628Z,21.34
2018-09-05T07:25:41.616Z,21.38
2018-09-05T07:26:43.367Z,21.32
2018-09-05T07:27:52.187Z,21.35
2018-09-05T07:28:57.525Z,21.29
2018-09-05T07:31:04.706Z,21.48
2018-09-05T07:32:06.970Z,21.39
2018-09-05T07:33:30.324Z,21.56
2018-09-05T07:34:16.409Z,21.56
2018-09-05T07:35:28.401Z,21.57
2018-09-05T07:36:40.799Z,21.60
2018-09-05T07:37:36.403Z,21.71
2018-09-05T07:38:44.197Z,21.67
2018-09-05T07:39:48.404Z,21.74
2018-09-05T07:40:54.658Z,21.85
2018-09-05T07:41:59.990Z,21.88
2018-09-05T07:43:09.009Z,21.95
2018-09-05T07:44:17.930Z,21.94
2018-09-05T07:45:16.199Z,22.02
2018-09-05T07:46:20.302Z,22.07
2018-09-05T07:47:30.858Z,22.06
2018-09-05T07:48:34.147Z,22.09
2018-09-05T07:49:37.944Z,22.20
2018-09-05T07:50:43.194Z,22.22
2018-09-05T07:51:51.169Z,22.25
2018-09-05T07:52:54.456Z,22.32
2018-09-05T07:55:17.821Z,22.41
2018-09-05T07:56:11.790Z,22.47
2018-09-05T07:57:18.516Z,22.47
2018-09-05T07:58:24.196Z,22.53
2018-09-05T07:59:26.560Z,22.60
2018-09-05T08:00:45.720Z,22.57
2018-09-05T08:01:43.884Z,22.69
2018-09-05T08:02:47.382Z,22.68
2018-09-05T08:03:49.639Z,22.78
2018-09-05T08:04:59.170Z,22.83
2018-09-05T08:06:02.463Z,22.92
2018-09-05T08:07:17.006Z,22.87
2018-09-05T08:08:26.581Z,22.96
2018-09-05T08:10:38.647Z,23.08
2018-09-05T08:11:43.994Z,23.11
2018-09-05T08:12:36.914Z,23.26
2018-09-05T08:13:39.893Z,23.24
2018-09-05T08:14:58.644Z,23.23
2018-09-05T08:15:49.438Z,23.22
2018-09-05T08:17:09.759Z,23.29
2018-09-05T08:18:19.457Z,23.32
2018-09-05T08:19:24.688Z,23.29
2018-09-05T08:20:25.719Z,23.39
2018-09-05T08:21:22.372Z,23.42
2018-09-05T08:22:26.044Z,23.35
2018-09-05T08:23:27.280Z,23.43
2018-09-05T08:24:40.066Z,23.43
2018-09-05T08:26:50.659Z,23.49
2018-09-05T08:29:03.304Z,23.53
2018-09-05T08:30:12.479Z,23.50
2018-09-05T08:31:26.238Z,23.52
2018-09-05T08:34:20.011Z,23.64
2018-09-05T08:36:48.869Z,23.68
2018-09-05T08:37:50.428Z,23.75
2018-09-05T08:38:55.526Z,23.71
2018-09-05T08:40:08.594Z,23.68
2018-09-05T08:41:00.204Z,23.85
2018-09-05T08:42:06.467Z,23.77
2018-09-05T08:43:20.713Z,23.82
2018-09-05T08:44:23.229Z,23.83
2018-09-05T08:46:31.993Z,23.92
2018-09-05T08:48:47.479Z,23.87
2018-09-05T08:49:53.228Z,24.02
2018-09-05T08:50:48.248Z,24.01
2018-09-05T08:52:20.783Z,24.14
2018-09-05T08:54:06.067Z,24.05
2018-09-05T08:55:29.822Z,24.22
2018-09-05T08:56:28.623Z,24.26
2018-09-05T08:57:29.331Z,24.31
2018-09-05T08:58:35.697Z,24.32
2018-09-05T08:59:47.160Z,24.39
2018-09-05T09:00:54.544Z,24.42
2018-09-05T09:01:43.902Z,24.42
2018-09-05T09:03:04.938Z,24.53
2018-09-05T09:04:18.058Z,24.47
2018-09-05T09:05:08.762Z,24.53
2018-09-05T09:06:07.909Z,24.53
2018-09-05T09:07:55.432Z,24.52
2018-09-05T09:09:37.115Z,24.64
2018-09-05T09:10:40.501Z,24.60
2018-09-05T09:14:06.138Z,24.77
2018-09-05T09:16:46.703Z,24.71
2018-09-05T09:17:43.845Z,24.82
2018-09-05T09:18:37.097Z,24.90
2018-09-05T09:19:32.700Z,24.83
2018-09-05T09:21:29.542Z,25.05
2018-09-05T09:22:40.625Z,25.09
2018-09-05T09:23:50.554Z,25.01
2018-09-05T09:25:14.936Z,25.00
2018-09-05T09:27:16.390Z,25.05
2018-09-05T09:28:29.506Z,25.05
2018-09-05T09:29:21.630Z,25.02
2018-09-05T09:30:37.613Z,25.10
2018-09-05T09:32:45.721Z,25.10
2018-09-05T09:33:55.972Z,25.12
2018-09-05T09:34:43.589Z,25.16
2018-09-05T09:36:05.207Z,25.16
2018-09-05T09:38:06.039Z,25.27
2018-09-05T09:39:05.231Z,25.28
2018-09-05T09:41:12.414Z,25.44
2018-09-05T09:42:23.381Z,25.42
2018-09-05T09:44:25.447Z,25.43
2018-09-05T09:45:30.576Z,25.44
2018-09-05T09:46:38.589Z,25.52
2018-09-05T09:47:46.777Z,25.54
2018-09-05T09:48:43.816Z,25.54
2018-09-05T09:49:51.635Z,25.65
2018-09-05T09:51:04.828Z,25.57
2018-09-05T09:52:14.376Z,25.65
2018-09-05T09:53:14.883Z,25.67
2018-09-05T09:54:15.917Z,25.69
2018-09-05T09:55:33.201Z,25.67
2018-09-05T09:56:26.995Z,25.69
2018-09-05T09:57:34.173Z,25.72
2018-09-05T09:58:34.486Z,25.72
2018-09-05T10:00:52.531Z,25.79
2018-09-05T10:01:57.762Z,25.86
2018-09-05T10:02:58.896Z,25.83
2018-09-05T10:04:01.778Z,25.84
2018-09-05T10:09:29.262Z,25.97
2018-09-05T10:10:41.602Z,25.94
2018-09-05T10:11:45.052Z,26.04
2018-09-05T10:12:51.716Z,25.99
2018-09-05T10:13:57.771Z,26.12
2018-09-05T10:15:03.583Z,26.11
2018-09-05T10:17:17.965Z,26.09
2018-09-05T10:18:29.142Z,26.08
2018-09-05T10:20:32.026Z,26.22
2018-09-05T10:21:37.253Z,26.21
2018-09-05T10:22:46.376Z,26.12
2018-09-05T10:23:53.344Z,26.28
2018-09-05T10:24:51.718Z,26.32
2018-09-05T10:27:41.812Z,26.35
2018-09-05T10:29:24.318Z,26.49
2018-09-05T10:31:37.610Z,26.55
2018-09-05T10:32:59.879Z,26.52
2018-09-05T10:33:45.348Z,26.61
2018-09-05T10:34:33.580Z,26.62
2018-09-05T10:35:38.507Z,26.62
2018-09-05T10:36:53.563Z,26.68
2018-09-05T10:38:10.677Z,26.65
2018-09-05T10:38:59.418Z,26.68
2018-09-05T10:40:31.582Z,26.68
2018-09-05T10:41:11.218Z,26.72
2018-09-05T10:42:23.615Z,26.77
2018-09-05T10:44:37.051Z,26.74
2018-09-05T10:45:58.468Z,26.73
2018-09-05T10:47:52.437Z,26.77
2018-09-05T10:49:19.073Z,26.79
2018-09-05T10:50:09.450Z,26.80
2018-09-05T10:51:15.605Z,26.83
2018-09-05T10:52:04.870Z,26.79
2018-09-05T10:53:24.635Z,26.87
2018-09-05T10:54:17.987Z,26.91
2018-09-05T10:55:33.833Z,26.87
2018-09-05T10:56:41.051Z,26.91
2018-09-05T10:57:26.318Z,26.99
2018-09-05T10:58:39.954Z,26.99
2018-09-05T10:59:41.078Z,27.02
2018-09-05T11:00:51.736Z,27.05
2018-09-05T11:02:02.403Z,27.10
2018-09-05T11:03:01.078Z,27.16
2018-09-05T11:04:03.280Z,27.20
2018-09-05T11:05:17.068Z,27.11
2018-09-05T11:07:25.897Z,27.23
2018-09-05T11:08:36.244Z,27.20
2018-09-05T11:09:37.174Z,27.31
2018-09-05T11:10:38.635Z,27.32
2018-09-05T11:11:41.810Z,27.46
2018-09-05T11:12:55.227Z,27.53
2018-09-05T11:13:58.825Z,27.59
2018-09-05T11:15:06.913Z,27.64
2018-09-05T11:17:25.168Z,27.66
2018-09-05T11:18:19.034Z,27.61
2018-09-05T11:19:27.253Z,27.67
2018-09-05T11:20:33.184Z,27.73
2018-09-05T11:22:42.212Z,27.80
2018-09-05T11:23:41.399Z,27.84
2018-09-05T11:25:06.602Z,27.85
2018-09-05T11:25:59.851Z,27.94
2018-09-05T11:29:15.956Z,28.01
2018-09-05T11:30:20.163Z,28.03
2018-09-05T11:31:44.033Z,28.13
2018-09-05T11:32:30.729Z,28.09
2018-09-05T11:33:40.567Z,28.16
2018-09-05T11:34:53.592Z,28.19
2018-09-05T11:36:51.363Z,28.21
2018-09-05T11:38:13.275Z,28.19
2018-09-05T11:40:44.936Z,28.31
2018-09-05T11:41:12.278Z,28.31
2018-09-05T11:42:22.016Z,28.33
2018-09-05T11:43:40.763Z,28.35
2018-09-05T11:44:39.243Z,28.36
2018-09-05T11:46:00.239Z,28.47
2018-09-05T11:46:41.609Z,28.62
2018-09-05T11:48:08.558Z,28.59
2018-09-05T11:49:08.661Z,28.63
2018-09-05T11:50:09.284Z,28.62
2018-09-05T11:51:03.147Z,28.69
2018-09-05T11:53:15.043Z,28.72
2018-09-05T11:55:32.163Z,28.77
2018-09-05T11:56:34.320Z,28.85
2018-09-05T11:58:55.944Z,28.91
2018-09-05T11:59:55.034Z,28.95
2018-09-05T12:01:08.150Z,28.85
2018-09-05T12:01:57.715Z,29.00
2018-09-05T12:03:17.795Z,28.91
2018-09-05T12:04:21.493Z,28.91
2018-09-05T12:05:15.765Z,28.91
2018-09-05T12:06:27.958Z,28.91
2018-09-05T12:07:26.943Z,28.96
2018-09-05T12:08:36.987Z,28.95
2018-09-05T12:09:37.915Z,28.90
2018-09-05T12:10:52.268Z,28.90
2018-09-05T12:11:54.317Z,28.93
2018-09-05T12:13:00.265Z,29.01
2018-09-05T12:14:09.388Z,29.01
2018-09-05T12:15:18.000Z,29.00
2018-09-05T12:16:15.242Z,29.06
2018-09-05T12:17:33.683Z,29.08
2018-09-05T12:18:32.496Z,29.06
2018-09-05T12:19:39.853Z,29.15
2018-09-05T12:20:34.118Z,29.22
2018-09-05T12:21:50.001Z,29.25
2018-09-05T12:23:50.736Z,29.22
2018-09-05T12:24:59.460Z,29.25
2018-09-05T12:26:03.452Z,29.31
2018-09-05T12:27:09.811Z,29.29
2018-09-05T12:28:19.445Z,29.25
2018-09-05T12:30:52.025Z,29.31
2018-09-05T12:31:30.942Z,29.22
2018-09-05T12:32:43.543Z,29.33
2018-09-05T12:34:54.417Z,29.37
2018-09-05T12:35:57.608Z,29.43
2018-09-05T12:37:01.193Z,29.50
2018-09-05T12:38:07.251Z,29.52
2018-09-05T12:39:13.913Z,29.60
2018-09-05T12:40:19.245Z,29.57
2018-09-05T12:41:18.434Z,29.52
2018-09-05T12:43:35.143Z,29.53
2018-09-05T12:44:40.624Z,29.57
2018-09-05T12:46:54.627Z,29.52
2018-09-05T12:47:58.425Z,29.41
2018-09-05T12:50:07.256Z,29.25
2018-09-05T12:51:15.347Z,29.31
2018-09-05T12:53:22.037Z,29.20
2018-09-05T12:54:37.285Z,29.28
2018-09-05T12:55:33.607Z,29.22
2018-09-05T12:57:57.179Z,29.13
2018-09-05T12:59:05.074Z,29.20
2018-09-05T13:00:08.873Z,29.07
2018-09-05T13:03:09.414Z,29.01
2018-09-05T13:04:37.275Z,29.03
2018-09-05T13:05:38.061Z,29.11
2018-09-05T13:06:37.200Z,29.04
2018-09-05T13:07:33.105Z,29.01
2018-09-05T13:08:40.688Z,29.15
2018-09-05T13:09:47.763Z,29.07
2018-09-05T13:10:55.962Z,29.11
2018-09-05T13:11:57.718Z,29.01
2018-09-05T13:13:19.736Z,29.16
2018-09-05T13:15:13.916Z,29.04
2018-09-05T13:16:20.992Z,29.10
2018-09-05T13:17:31.341Z,29.10
2018-09-05T13:18:38.415Z,29.10
2018-09-05T13:20:45.500Z,29.07
2018-09-05T13:21:46.637Z,29.15
2018-09-05T13:22:56.924Z,29.07
2018-09-05T13:24:06.930Z,29.11
2018-09-05T13:24:57.823Z,29.07
2018-09-05T13:26:09.402Z,29.10
2018-09-05T13:27:17.811Z,29.07
2018-09-05T13:28:23.966Z,29.06
2018-09-05T13:29:37.081Z,29.22
2018-09-05T13:31:32.445Z,29.08
2018-09-05T13:33:43.261Z,29.16
2018-09-05T13:35:14.408Z,29.11
2018-09-05T13:37:05.510Z,29.11
2018-09-05T13:38:06.337Z,29.07
2018-09-05T13:39:31.135Z,29.23
2018-09-05T13:40:16.086Z,29.25
2018-09-05T13:41:22.648Z,29.16
2018-09-05T13:42:36.175Z,29.13
2018-09-05T13:43:37.513Z,29.22
2018-09-05T13:45:57.495Z,29.28
2018-09-05T13:46:49.824Z,29.31
2018-09-05T13:48:06.123Z,29.28
2018-09-05T13:49:00.699Z,29.37
2018-09-05T13:50:08.694Z,29.35
2018-09-05T13:51:20.794Z,29.38
2018-09-05T13:52:22.127Z,29.38
2018-09-05T13:54:39.859Z,29.31
2018-09-05T13:56:41.004Z,29.38
2018-09-05T13:58:56.383Z,29.29
2018-09-05T14:01:04.908Z,29.25
2018-09-05T14:02:20.065Z,29.26
2018-09-05T14:03:16.391Z,29.29
2018-09-05T14:05:23.791Z,29.26
2018-09-05T14:06:37.713Z,29.33
2018-09-05T14:07:38.029Z,29.20
2018-09-05T14:08:46.030Z,29.28
2018-09-05T14:09:51.463Z,29.28
2018-09-05T14:10:54.952Z,29.26
2018-09-05T14:14:07.991Z,29.11
2018-09-05T14:15:43.527Z,29.08
2018-09-05T14:16:22.849Z,29.07
2018-09-05T14:17:29.209Z,29.04
2018-09-05T14:18:34.543Z,29.07
2018-09-05T14:19:34.244Z,29.03
2018-09-05T14:22:52.399Z,28.95
2018-09-05T14:24:02.242Z,28.90
2018-09-05T14:25:11.669Z,28.93
2018-09-05T14:27:14.455Z,28.88
2018-09-05T14:28:29.209Z,28.91
2018-09-05T14:30:34.552Z,28.93
2018-09-05T14:31:39.783Z,28.87
2018-09-05T14:33:55.983Z,28.93
2018-09-05T14:36:15.053Z,28.93
2018-09-05T14:37:10.864Z,28.93
2018-09-05T14:38:11.500Z,28.91
2018-09-05T14:39:17.639Z,28.91
2018-09-05T14:40:22.366Z,28.93
2018-09-05T14:42:34.048Z,28.96
2018-09-05T14:43:51.169Z,29.00
2018-09-05T14:45:51.896Z,28.88
2018-09-05T14:46:56.213Z,28.96
2018-09-05T14:48:09.639Z,28.88
2018-09-05T14:50:07.710Z,28.80
2018-09-05T14:51:21.646Z,28.72
2018-09-05T14:52:28.313Z,28.75
2018-09-05T14:53:31.387Z,28.62
2018-09-05T14:54:46.552Z,28.68
2018-09-05T14:55:36.318Z,28.69
2018-09-05T14:56:54.256Z,28.54
2018-09-05T14:57:59.789Z,28.56
2018-09-05T14:59:03.995Z,28.54
2018-09-05T15:00:07.380Z,28.56
2018-09-05T15:01:15.684Z,28.48
2018-09-05T15:02:22.761Z,28.54
2018-09-05T15:03:12.221Z,28.50
2018-09-05T15:05:35.076Z,28.35
2018-09-05T15:06:30.189Z,28.43
2018-09-05T15:08:52.209Z,28.46
2018-09-05T15:11:05.332Z,28.53
2018-09-05T15:12:10.049Z,28.51
2018-09-05T15:14:12.522Z,28.53
2018-09-05T15:16:35.379Z,28.51
2018-09-05T15:17:58.224Z,28.46
2018-09-05T15:19:59.982Z,28.41
2018-09-05T15:20:56.312Z,28.44
2018-09-05T15:22:51.403Z,28.51
2018-09-05T15:24:16.196Z,28.51
2018-09-05T15:25:16.521Z,28.48
2018-09-05T15:26:09.558Z,28.43
2018-09-05T15:27:19.294Z,28.38
2018-09-05T15:28:34.098Z,28.40
2018-09-05T15:29:54.029Z,28.40
2018-09-05T15:31:37.254Z,28.36
2018-09-05T15:33:15.663Z,28.26
2018-09-05T15:34:15.468Z,28.23
2018-09-05T15:35:00.633Z,28.21
2018-09-05T15:36:00.738Z,28.19
2018-09-05T15:37:26.144Z,28.17
2018-09-05T15:38:17.654Z,28.16
2018-09-05T15:40:23.919Z,28.29
2018-09-05T15:41:30.075Z,28.25
2018-09-05T15:42:29.366Z,28.28
2018-09-05T15:43:39.924Z,28.14
2018-09-05T15:44:39.624Z,28.10
2018-09-05T15:45:51.408Z,28.14
2018-09-05T15:46:55.652Z,28.13
2018-09-05T15:47:59.823Z,28.16
2018-09-05T15:49:18.489Z,28.10
2018-09-05T15:50:09.978Z,28.01
2018-09-05T15:52:33.659Z,27.94
2018-09-05T15:54:32.439Z,27.91
2018-09-05T15:55:38.081Z,28.01
2018-09-05T15:57:28.178Z,27.94
2018-09-05T15:58:02.164Z,27.88
2018-09-05T16:02:23.702Z,27.82
2018-09-05T16:03:18.697Z,27.86
2018-09-05T16:04:19.423Z,27.86
2018-09-05T16:05:38.479Z,27.79
2018-09-05T16:06:35.829Z,27.74
2018-09-05T16:07:33.885Z,27.77
2018-09-05T16:08:45.065Z,27.77
2018-09-05T16:09:53.053Z,27.76
2018-09-05T16:10:59.509Z,27.80
2018-09-05T16:12:26.763Z,27.71
2018-09-05T16:13:24.926Z,27.76
2018-09-05T16:14:38.042Z,27.62
2018-09-05T16:15:25.840Z,27.70
2018-09-05T16:16:35.911Z,27.70
2018-09-05T16:17:37.255Z,27.74
2018-09-05T16:18:32.038Z,27.76
2018-09-05T16:20:54.584Z,27.77
2018-09-05T16:21:55.545Z,27.79
2018-09-05T16:22:56.042Z,27.80
2018-09-05T16:24:11.709Z,27.80
2018-09-05T16:25:11.718Z,27.77
2018-09-05T16:28:28.335Z,27.74
2018-09-05T16:29:38.499Z,27.77
2018-09-05T16:30:34.399Z,27.84
2018-09-05T16:31:51.404Z,27.74
2018-09-05T16:34:04.533Z,27.76
2018-09-05T16:34:58.290Z,27.85
2018-09-05T16:36:02.912Z,27.86
2018-09-05T16:37:28.823Z,27.89
2018-09-05T16:38:11.831Z,27.80
2018-09-05T16:39:17.174Z,27.91
2018-09-05T16:40:25.285Z,27.84
2018-09-05T16:41:32.235Z,27.77
2018-09-05T16:42:37.264Z,27.86
2018-09-05T16:43:53.557Z,27.86
2018-09-05T16:45:00.021Z,27.88
2018-09-05T16:45:52.971Z,27.79
2018-09-05T16:48:14.892Z,27.84
2018-09-05T16:49:27.292Z,27.82
2018-09-05T16:51:27.418Z,27.74
2018-09-05T16:52:32.645Z,27.69
2018-09-05T16:53:36.237Z,27.71
2018-09-05T16:54:59.598Z,27.76
2018-09-05T16:55:39.531Z,27.66
2018-09-05T16:57:02.889Z,27.71
2018-09-05T16:57:55.740Z,27.64
2018-09-05T16:58:58.915Z,27.64
2018-09-05T17:00:18.277Z,27.61
2018-09-05T17:01:20.437Z,27.66